Latest Weather Observations for Warwick

IDQ60901

Issued at 12:11 pm EST Wednesday 26 April 2017 (issued every 10 minutes, with the page automatically refreshed every 10 minutes)

About weather observations | Map of Brisbane area stations | Latest observations for Brisbane area | Other Formats
Station Details ID: 041525 Name: WARWICK Lat: -28.21 Lon: 152.10 Height: 475.4 m
Data from the previous 72 hours. | See also: Recent months at Warwick
Date/Time
EST
Temp
°C
App
Temp
°C
Dew
Point
°C
Rel
Hum
%
Delta-T
°C
Wind Press
QNH
hPa
Press
MSL
hPa
Rain since
9am
mm
Dir  Spd
km/h
Gust
km/h
Spd
kts
Gust
kts
26/12:00pm 18.2 18.0 16.6 90 1.0 NW 13 17 7 9 1011.9 1010.3 1.4
26/11:30am 17.8 18.0 16.7 93 0.7 NW 11 19 6 10 1012.6 1011.0 1.2
26/11:00am 17.6 17.7 16.5 93 0.7 NNW 11 17 6 9 1013.1 1011.5 1.2
26/10:30am 17.7 16.9 16.2 91 0.9 NW 15 22 8 12 1013.8 1012.2 0.0
26/10:00am 17.5 17.0 16.0 91 0.9 NNW 13 19 7 10 1013.8 1012.2 0.0
26/09:30am 17.4 17.8 16.2 93 0.7 N 9 15 5 8 1014.3 1012.7 0.0
26/09:00am 16.7 17.2 15.5 93 0.7 NNE 7 9 4 5 1014.5 1013.0 3.0
26/08:30am 15.5 17.0 14.6 94 0.5 CALM 0 0 0 0 1014.8 1013.3 2.2
26/08:00am 15.4 15.1 14.4 94 0.6 WSW 9 13 5 7 1015.3 1013.7 0.6
26/07:30am 16.2 17.6 14.3 88 1.1 CALM 0 0 0 0 1014.3 1012.7 0.0
26/07:00am 15.5 16.6 13.4 87 1.2 CALM 0 0 0 0 1014.1 1012.5 0.0
26/06:30am 15.0 16.1 13.4 90 0.9 CALM 0 0 0 0 1014.1 1012.5 0.0
26/06:00am 14.7 14.3 12.9 89 1.0 NNE 7 9 4 5 1013.9 1012.3 0.0
26/05:30am 14.3 15.1 12.5 89 1.0 CALM 0 0 0 0 1014.1 1012.5 0.0
26/05:00am 15.8 16.1 13.4 86 1.4 NNW 4 7 2 4 1013.9 1012.3 0.0
26/04:30am 16.3 16.0 13.3 82 1.7 WNW 7 11 4 6 1014.1 1012.5 0.0
26/04:00am 15.8 15.4 13.0 83 1.6 NW 7 9 4 5 1013.8 1012.2 0.0
26/03:30am 13.7 14.3 11.9 89 1.0 CALM 0 0 0 0 1014.0 1012.4 0.0
26/03:00am 13.7 14.2 11.7 88 1.1 CALM 0 0 0 0 1013.8 1012.2 0.0
26/02:30am 13.1 13.5 11.1 88 1.1 CALM 0 0 0 0 1013.9 1012.3 0.0
26/02:00am 12.8 13.2 11.1 89 0.9 CALM 0 0 0 0 1014.2 1012.6 0.0
26/01:30am 12.7 13.0 11.0 89 0.9 CALM 0 0 0 0 1014.1 1012.5 0.0
26/01:00am 13.0 13.4 11.1 88 1.0 CALM 0 0 0 0 1014.3 1012.7 0.0
26/12:30am 13.1 13.5 11.1 88 1.1 CALM 0 0 0 0 1014.4 1012.8 0.0
26/12:00am 13.7 12.9 11.1 84 1.4 NE 6 9 3 5 1014.5 1013.0 0.0
 
Date/Time
EST
Temp
°C
App
Temp
°C
Dew
Point
°C
Rel
Hum
%
Delta-T
°C
Wind Press
QNH
hPa
Press
MSL
hPa
Rain since
9am
mm
Dir  Spd
km/h
Gust
km/h
Spd
kts
Gust
kts
25/11:30pm 13.8 14.2 11.4 85 1.3 CALM 0 0 0 0 1015.1 1013.5 0.0
25/11:00pm 15.2 14.6 11.8 80 1.9 NNE 6 15 3 8 1015.1 1013.5 0.0
25/10:30pm 18.1 15.4 10.4 60 4.2 NNE 15 19 8 10 1015.3 1013.7 0.0
25/10:00pm 14.0 14.6 11.8 86 1.2 CALM 0 0 0 0 1015.6 1014.0 0.0
25/09:30pm 14.2 14.7 11.6 84 1.4 CALM 0 0 0 0 1015.9 1014.3 0.0
25/09:00pm 15.5 15.7 11.9 79 2.0 S 2 9 1 5 1016.1 1014.5 0.0
25/08:30pm 17.2 16.3 10.8 66 3.5 N 6 13 3 7 1016.2 1014.6 0.0
25/08:00pm 18.2 16.5 11.2 63 3.9 N 11 17 6 9 1016.2 1014.6 0.0
25/07:30pm 18.5 16.1 11.3 63 4.0 N 15 20 8 11 1015.9 1014.3 0.0
25/07:00pm 18.2 16.2 11.6 65 3.7 NNE 13 17 7 9 1015.6 1014.0 0.0
25/06:30pm 19.4 16.6 11.2 59 4.6 N 17 19 9 10 1015.3 1013.7 0.0
25/06:00pm 20.0 17.1 11.1 56 5.0 N 17 20 9 11 1014.9 1013.4 0.0
25/05:30pm 20.9 17.6 10.9 52 5.6 N 19 24 10 13 1014.9 1013.4 0.0
25/05:00pm 22.2 19.7 11.1 49 6.3 N 15 24 8 13 1014.8 1013.3 0.0
25/04:30pm 23.4 20.8 10.7 44 7.2 N 15 22 8 12 1015.1 1013.5 0.0
25/04:00pm 24.2 22.8 10.9 43 7.6 NNW 9 17 5 9 1015.1 1013.5 0.0
25/03:30pm 23.7 21.7 10.2 42 7.6 N 11 17 6 9 1015.2 1013.6 0.0
25/03:00pm 24.2 22.6 10.2 41 7.9 NNW 9 20 5 11 1015.2 1013.6 0.0
25/02:30pm 24.5 22.6 10.4 41 8.0 NW 11 19 6 10 1015.5 1013.9 0.0
25/02:00pm 24.9 22.5 10.2 39 8.3 NNW 13 24 7 13 1015.7 1014.1 0.0
25/01:30pm 24.3 23.0 11.4 44 7.4 NNW 9 19 5 10 1016.2 1014.6 0.0
25/01:00pm 23.6 22.0 11.4 46 7.0 NW 11 19 6 10 1016.6 1015.1 0.0
25/12:30pm 23.7 21.8 11.9 47 6.8 N 13 20 7 11 1017.4 1015.8 0.0
25/12:00pm 23.2 22.4 13.0 52 6.0 NNW 9 17 5 9 1018.1 1016.5 0.0
25/11:30am 22.0 20.7 11.4 51 6.0 NNE 9 19 5 10 1018.7 1017.2 0.0
25/11:00am 21.1 21.1 13.6 62 4.4 E 6 9 3 5 1019.3 1017.8 0.0
25/10:30am 19.1 20.2 13.6 70 3.2 CALM 0 6 0 3 1019.9 1018.3 0.0
25/10:00am 16.3 17.0 13.3 82 1.7 S 2 7 1 4 1020.5 1019.0 0.0
25/09:30am 14.0 13.7 12.7 92 0.7 SW 6 11 3 6 1020.6 1019.1 0.0
25/09:00am 13.0 13.7 12.3 95 0.4 CALM 0 6 0 3 1020.6 1019.1 0.0
25/08:30am 12.1 12.5 11.4 95 0.4 CALM 0 0 0 0 1020.7 1019.2 0.0
25/08:00am 11.3 10.5 11.1 99 0.1 ENE 6 7 3 4 1020.4 1018.9 0.0
25/07:30am 10.7 10.9 10.5 99 0.1 CALM 0 7 0 4 1020.4 1018.9 0.0
25/07:00am 10.0 10.0 9.8 99 0.1 CALM 0 0 0 0 1020.4 1018.9 0.0
25/06:30am 9.4 9.3 9.4 100 0.0 CALM 0 0 0 0 1020.1 1018.6 0.0
25/06:00am 8.8 8.5 8.8 100 0.0 CALM 0 0 0 0 1019.8 1018.2 0.0
25/05:30am 8.5 8.2 8.5 100 0.0 CALM 0 0 0 0 1019.5 1017.9 0.0
25/05:00am 8.8 8.5 8.8 100 0.0 CALM 0 0 0 0 1018.9 1017.4 0.0
25/04:30am 8.4 8.0 8.2 99 0.1 CALM 0 0 0 0 1019.1 1017.6 0.0
25/04:00am 8.6 8.2 8.4 99 0.1 CALM 0 0 0 0 1019.1 1017.6 0.0
25/03:30am 9.7 9.6 9.5 99 0.1 CALM 0 0 0 0 1019.2 1017.7 0.0
25/03:00am 10.6 10.3 10.2 97 0.2 NNE 2 6 1 3 1019.6 1018.0 0.0
25/02:30am 10.1 8.8 10.1 100 0.0 ENE 7 9 4 5 1019.6 1018.0 0.0
25/02:00am 11.1 11.3 10.5 96 0.3 CALM 0 0 0 0 1019.8 1018.2 0.0
25/01:30am 10.5 10.7 10.5 100 0.0 CALM 0 0 0 0 1020.0 1018.4 0.0
25/01:00am 11.1 11.5 11.1 100 0.0 CALM 0 0 0 0 1020.2 1018.7 0.0
25/12:30am 11.5 11.9 11.3 99 0.1 CALM 0 0 0 0 1020.4 1018.9 0.0
25/12:00am 11.8 12.2 11.2 96 0.3 CALM 0 0 0 0 1020.6 1019.1 0.0
 
Date/Time
EST
Temp
°C
App
Temp
°C
Dew
Point
°C
Rel
Hum
%
Delta-T
°C
Wind Press
QNH
hPa
Press
MSL
hPa
Rain since
9am
mm
Dir  Spd
km/h
Gust
km/h
Spd
kts
Gust
kts
24/11:30pm 12.9 13.5 12.0 94 0.5 CALM 0 4 0 2 1020.9 1019.4 0.0
24/11:00pm 12.5 11.3 11.6 94 0.5 NE 9 11 5 6 1021.3 1019.8 0.0
24/10:30pm 12.9 13.5 11.8 93 0.6 CALM 0 0 0 0 1021.4 1019.9 0.0
24/10:00pm 13.9 14.6 12.3 90 0.9 CALM 0 0 0 0 1021.7 1020.1 0.0
24/09:30pm 14.0 13.5 12.0 88 1.1 NNE 6 9 3 5 1021.4 1019.9 0.0
24/09:00pm 13.0 13.6 11.9 93 0.6 CALM 0 0 0 0 1021.4 1019.9 0.0
24/08:30pm 14.1 13.5 11.7 85 1.3 ENE 6 7 3 4 1021.4 1019.9 0.0
24/08:00pm 15.3 15.9 11.9 80 1.9 CALM 0 2 0 1 1021.1 1019.6 0.0
24/07:30pm 15.1 13.9 11.5 79 2.0 NE 9 11 5 6 1020.9 1019.4 0.0
24/07:00pm 14.8 15.0 10.7 76 2.2 CALM 0 0 0 0 1020.6 1019.1 0.0
24/06:30pm 15.5 15.9 11.1 75 2.4 CALM 0 0 0 0 1020.3 1018.8 0.0
24/06:00pm 17.8 17.3 12.5 71 3.0 NE 7 9 4 5 1019.8 1018.2 0.0
24/05:30pm 18.6 17.0 11.4 63 4.0 NNE 11 13 6 7 1019.6 1018.0 0.0
24/05:00pm 20.7 18.8 11.7 56 5.1 NE 13 17 7 9 1019.2 1017.7 0.0
24/04:30pm 21.3 19.8 13.1 59 4.8 NE 13 19 7 10 1019.1 1017.6 0.0
24/04:00pm 23.0 21.6 12.3 51 6.2 E 11 17 6 9 1019.0 1017.5 0.0
24/03:30pm 23.4 21.7 12.4 50 6.4 ENE 13 19 7 10 1018.8 1017.3 0.0
24/03:00pm 23.8 21.9 11.8 47 6.9 E 13 28 7 15 1018.9 1017.4 0.0
24/02:30pm 24.1 22.8 11.4 45 7.3 SE 9 19 5 10 1018.9 1017.4 0.0
24/02:00pm 23.7 22.5 11.5 46 7.0 SSE 9 20 5 11 1019.2 1017.7 0.0
24/01:30pm 23.2 21.6 11.5 47 6.7 SSE 11 20 6 11 1019.6 1018.0 0.0
24/01:00pm 22.8 21.6 11.6 49 6.4 SSE 9 20 5 11 1019.9 1018.3 0.0
24/12:30pm 23.1 22.5 12.2 50 6.3 SE 7 19 4 10 1020.2 1018.7 0.0
24/12:00pm 22.4 21.9 12.6 54 5.7 S 7 17 4 9 1020.7 1019.2 0.0
24/11:30am 22.0 21.3 13.1 57 5.2 ESE 9 15 5 8 1021.1 1019.6 0.0
24/11:00am 21.4 21.2 13.0 58 4.9 WSW 6 13 3 7 1021.8 1020.2 0.0
24/10:30am 20.7 19.9 12.9 61 4.5 SSE 9 20 5 11 1022.5 1021.0 0.0
24/10:00am 20.1 19.3 12.8 63 4.2 SE 9 19 5 10 1022.8 1021.3 0.0
24/09:30am 19.4 18.7 13.2 67 3.6 SE 9 15 5 8 1023.1 1021.6 0.0
24/09:00am 18.9 17.6 13.7 72 3.0 SSE 13 20 7 11 1023.1 1021.6 0.0
24/08:30am 17.2 16.3 13.6 79 2.1 SSE 11 20 6 11 1023.0 1021.5 0.0
24/08:00am 14.9 14.6 12.8 87 1.2 ENE 6 9 3 5 1022.8 1021.3 0.0
24/07:30am 13.2 12.1 11.9 92 0.7 NE 9 11 5 6 1022.5 1021.0 0.0
24/07:00am 12.3 11.4 11.4 94 0.5 NE 7 7 4 4 1022.2 1020.7 0.0
24/06:30am 11.2 10.7 10.6 96 0.3 NE 4 9 2 5 1022.1 1020.6 0.0
24/06:00am 10.8 9.6 10.2 96 0.3 NE 7 9 4 5 1021.9 1020.3 0.0
24/05:30am 10.1 8.4 9.9 99 0.1 NE 9 11 5 6 1021.4 1019.9 0.0
24/05:00am 11.2 10.3 10.6 96 0.3 NE 6 9 3 5 1021.4 1019.9 0.0
24/04:30am 11.1 9.8 10.1 94 0.5 NNE 7 9 4 5 1021.3 1019.8 0.0
24/04:00am 10.6 8.9 10.0 96 0.3 NE 9 11 5 6 1021.3 1019.8 0.0
24/03:30am 10.5 9.2 9.9 96 0.3 NE 7 9 4 5 1021.3 1019.8 0.0
24/03:00am 10.7 10.8 10.3 97 0.2 CALM 0 0 0 0 1021.5 1020.0 0.0
24/02:30am 10.6 10.7 10.0 96 0.3 CALM 0 0 0 0 1021.8 1020.2 0.0
24/02:00am 11.3 10.8 10.7 96 0.3 NE 4 7 2 4 1022.0 1020.5 0.0
24/01:30am 11.5 10.7 11.1 97 0.2 E 6 7 3 4 1022.2 1020.7 0.0
24/01:00am 9.8 9.6 9.0 95 0.4 CALM 0 0 0 0 1022.4 1020.9 0.0
24/12:30am 11.2 9.7 10.4 95 0.4 NE 9 9 5 5 1022.5 1021.0 0.0
24/12:00am 12.4 11.6 11.1 92 0.7 NE 6 7 3 4 1022.7 1021.2 0.0
 
Date/Time
EST
Temp
°C
App
Temp
°C
Dew
Point
°C
Rel
Hum
%
Delta-T
°C
Wind Press
QNH
hPa
Press
MSL
hPa
Rain since
9am
mm
Dir  Spd
km/h
Gust
km/h
Spd
kts
Gust
kts
23/11:30pm 13.4 12.8 11.6 89 1.0 NNE 6 7 3 4 1023.0 1021.5 0.0
23/11:00pm 11.5 11.7 10.6 94 0.5 CALM 0 0 0 0 1023.1 1021.6 0.0
23/10:30pm 12.3 12.6 11.0 92 0.7 CALM 0 0 0 0 1023.3 1021.8 0.0
23/10:00pm 12.4 12.7 10.9 90 0.8 CALM 0 0 0 0 1023.3 1021.8 0.0
23/09:30pm 13.0 13.5 11.7 92 0.7 CALM 0 0 0 0 1023.2 1021.7 0.0
23/09:00pm 13.4 14.0 11.8 90 0.9 CALM 0 0 0 0 1023.2 1021.7 0.0
23/08:30pm 13.5 14.0 11.7 89 1.0 CALM 0 0 0 0 1023.1 1021.6 0.0
23/08:00pm 14.0 14.6 11.8 86 1.2 CALM 0 0 0 0 1022.9 1021.4 0.0
23/07:30pm 14.4 14.8 11.3 81 1.7 CALM 0 0 0 0 1022.6 1021.1 0.0
23/07:00pm 15.3 15.9 11.9 80 1.9 CALM 0 0 0 0 1022.3 1020.8 0.0
23/06:30pm 16.0 16.5 11.7 75 2.4 CALM 0 0 0 0 1022.0 1020.5 0.0
23/06:00pm 18.7 19.6 12.9 69 3.3 CALM 0 0 0 0 1021.8 1020.2 0.0
23/05:30pm 19.7 20.3 11.9 60 4.4 CALM 0 6 0 3 1021.3 1019.8 0.0
23/05:00pm 21.5 20.2 11.4 52 5.7 SE 9 17 5 9 1021.1 1019.6 0.0
23/04:30pm 22.2 20.9 11.3 50 6.2 SSE 9 15 5 8 1020.8 1019.3 0.0
23/04:00pm 22.8 21.1 11.2 48 6.6 S 11 17 6 9 1020.5 1019.0 0.0
23/03:30pm 22.8 21.9 11.4 48 6.5 SE 7 15 4 8 1020.5 1019.0 0.0
23/03:00pm 22.9 21.6 11.3 48 6.6 SSE 9 17 5 9 1020.6 1019.1 0.0
23/02:30pm 22.7 21.3 11.0 47 6.6 SE 9 15 5 8 1020.8 1019.3 0.0
23/02:00pm 22.9 22.6 11.5 48 6.5 SE 4 11 2 6 1020.9 1019.4 0.0
23/01:30pm 22.9 22.3 11.7 49 6.4 E 6 11 3 6 1021.2 1019.7 0.0
23/01:00pm 22.9 22.1 13.0 53 5.8 SSW 9 15 5 8 1021.4 1019.9 0.0
23/12:30pm 21.4 19.9 13.0 58 4.9 SSW 13 22 7 12 1022.0 1020.5 0.0

Latest Capital City Observations: Canberra | Sydney | Melbourne | Brisbane | Adelaide | Perth | Hobart | Darwin

Other Formats:

Comma delimited format used in spreadsheet applications
http://www.bom.gov.au/fwo/IDQ60901/IDQ60901.94555.axf

JavaScript Object Notation format (JSON) in row-major order
http://www.bom.gov.au/fwo/IDQ60901/IDQ60901.94555.json